createdAt,value
2022-12-22T00:00:06.848Z,998.50
2022-12-22T00:00:39.383Z,998.50
2022-12-22T00:01:11.952Z,998.47
2022-12-22T00:01:49.806Z,998.47
2022-12-22T00:02:17.250Z,998.49
2022-12-22T00:02:49.960Z,998.48
2022-12-22T00:03:22.547Z,998.49
2022-12-22T00:03:54.970Z,998.48
2022-12-22T00:04:27.326Z,998.46
2022-12-22T00:04:59.846Z,998.45
2022-12-22T00:05:32.392Z,998.46
2022-12-22T00:06:04.906Z,998.46
2022-12-22T00:06:37.490Z,998.48
2022-12-22T00:07:10.008Z,998.45
2022-12-22T00:07:42.470Z,998.48
2022-12-22T00:08:14.934Z,998.49
2022-12-22T00:08:47.413Z,998.49
2022-12-22T00:09:19.888Z,998.47
2022-12-22T00:09:52.316Z,998.45
2022-12-22T00:10:24.868Z,998.46
2022-12-22T00:10:57.440Z,998.47
2022-12-22T00:11:30.076Z,998.45
2022-12-22T00:12:02.530Z,998.45
2022-12-22T00:12:35.031Z,998.45
2022-12-22T00:13:07.647Z,998.45
2022-12-22T00:13:40.231Z,998.45
2022-12-22T00:14:12.747Z,998.43
2022-12-22T00:14:45.278Z,998.42
2022-12-22T00:15:17.751Z,998.41
2022-12-22T00:15:51.175Z,998.41
2022-12-22T00:16:24.257Z,998.39
2022-12-22T00:16:56.861Z,998.41
2022-12-22T00:17:29.250Z,998.41
2022-12-22T00:18:02.695Z,998.40
2022-12-22T00:18:35.223Z,998.39
2022-12-22T00:19:07.686Z,998.38
2022-12-22T00:19:40.137Z,998.37
2022-12-22T00:20:18.100Z,998.35
2022-12-22T00:20:45.009Z,998.35
2022-12-22T00:21:17.475Z,998.31
2022-12-22T00:21:50.037Z,998.31
2022-12-22T00:22:22.497Z,998.31
2022-12-22T00:22:55.160Z,998.29
2022-12-22T00:23:27.582Z,998.30
2022-12-22T00:24:00.079Z,998.29
2022-12-22T00:24:32.540Z,998.28
2022-12-22T00:25:05.083Z,998.27
2022-12-22T00:25:37.487Z,998.26
2022-12-22T00:26:09.977Z,998.27
2022-12-22T00:26:42.478Z,998.25
2022-12-22T00:27:15.009Z,998.25
2022-12-22T00:27:47.539Z,998.26
2022-12-22T00:28:20.067Z,998.24
2022-12-22T00:28:52.480Z,998.23
2022-12-22T00:29:24.989Z,998.22
2022-12-22T00:29:57.500Z,998.20
2022-12-22T00:30:30.039Z,998.18
2022-12-22T00:31:02.583Z,998.18
2022-12-22T00:31:34.972Z,998.16
2022-12-22T00:32:07.432Z,998.14
2022-12-22T00:32:39.931Z,998.13
2022-12-22T00:33:12.373Z,998.12
2022-12-22T00:33:44.791Z,998.10
2022-12-22T00:34:17.570Z,998.08
2022-12-22T00:34:50.077Z,998.04
2022-12-22T00:35:22.557Z,998.03
2022-12-22T00:35:55.094Z,998.03
2022-12-22T00:36:28.174Z,998.01
2022-12-22T00:37:00.679Z,998.02
2022-12-22T00:37:33.317Z,998.03
2022-12-22T00:38:05.831Z,998.03
2022-12-22T00:38:38.320Z,998.02
2022-12-22T00:39:10.774Z,998.02
2022-12-22T00:39:43.312Z,998.02
2022-12-22T00:40:15.817Z,998.02
2022-12-22T00:40:48.354Z,998.02
2022-12-22T00:41:20.862Z,998.02
2022-12-22T00:41:53.375Z,998.04
2022-12-22T00:42:25.821Z,998.03
2022-12-22T00:42:58.281Z,998.03
2022-12-22T00:43:30.753Z,998.02
2022-12-22T00:44:03.283Z,998.02
2022-12-22T00:44:35.886Z,998.02
2022-12-22T00:45:08.338Z,998.03
2022-12-22T00:45:40.856Z,998.03
2022-12-22T00:46:13.326Z,998.03
2022-12-22T00:46:45.737Z,998.02
2022-12-22T00:47:18.191Z,998.01
2022-12-22T00:47:50.685Z,998.01
2022-12-22T00:48:23.140Z,998.00
2022-12-22T00:48:55.603Z,998.00
2022-12-22T00:49:28.105Z,998.02
2022-12-22T00:50:00.604Z,998.03
2022-12-22T00:50:33.106Z,998.01
2022-12-22T00:51:05.638Z,998.00
2022-12-22T00:51:38.190Z,997.99
2022-12-22T00:52:10.636Z,997.96
2022-12-22T00:52:43.088Z,997.97
2022-12-22T00:53:15.606Z,997.96
2022-12-22T00:53:48.161Z,997.96
2022-12-22T00:54:20.664Z,997.96
2022-12-22T00:54:53.166Z,997.92
2022-12-22T00:55:25.674Z,997.89
2022-12-22T00:55:58.191Z,997.94
2022-12-22T00:56:30.746Z,997.92
2022-12-22T00:57:03.268Z,997.89
2022-12-22T00:57:35.775Z,997.87
2022-12-22T00:58:08.287Z,997.84
2022-12-22T00:58:40.866Z,997.83
2022-12-22T00:59:13.350Z,997.82
2022-12-22T00:59:45.798Z,997.81
2022-12-22T01:00:18.335Z,997.81
2022-12-22T01:00:50.831Z,997.79
2022-12-22T01:01:23.474Z,997.78
2022-12-22T01:01:56.031Z,997.79
2022-12-22T01:02:28.547Z,997.79
2022-12-22T01:03:00.913Z,997.79
2022-12-22T01:03:33.520Z,997.80
2022-12-22T01:04:05.941Z,997.78
2022-12-22T01:04:38.435Z,997.79
2022-12-22T01:05:10.966Z,997.77
2022-12-22T01:05:43.488Z,997.75
2022-12-22T01:06:16.075Z,997.74
2022-12-22T01:06:48.679Z,997.74
2022-12-22T01:07:21.116Z,997.74
2022-12-22T01:07:53.609Z,997.74
2022-12-22T01:08:26.130Z,997.75
2022-12-22T01:08:58.615Z,997.73
2022-12-22T01:09:31.157Z,997.72
2022-12-22T01:10:03.666Z,997.70
2022-12-22T01:10:36.165Z,997.71
2022-12-22T01:11:08.658Z,997.69
2022-12-22T01:11:41.103Z,997.66
2022-12-22T01:12:13.645Z,997.65
2022-12-22T01:12:46.177Z,997.65
2022-12-22T01:13:18.653Z,997.62
2022-12-22T01:13:51.124Z,997.62
2022-12-22T01:14:23.718Z,997.59
2022-12-22T01:14:56.258Z,997.59
2022-12-22T01:15:28.777Z,997.58
2022-12-22T01:16:01.306Z,997.56
2022-12-22T01:16:33.794Z,997.55
2022-12-22T01:17:06.161Z,997.56
2022-12-22T01:17:38.615Z,997.54
2022-12-22T01:18:11.151Z,997.52
2022-12-22T01:18:43.781Z,997.56
2022-12-22T01:19:16.324Z,997.56
2022-12-22T01:19:48.836Z,997.53
2022-12-22T01:20:21.353Z,997.52
2022-12-22T01:20:53.862Z,997.50
2022-12-22T01:21:26.307Z,997.49
2022-12-22T01:21:58.742Z,997.47
2022-12-22T01:22:31.237Z,997.47
2022-12-22T01:23:03.824Z,997.48
2022-12-22T01:23:36.292Z,997.49
2022-12-22T01:24:08.704Z,997.48
2022-12-22T01:24:41.164Z,997.51
2022-12-22T01:25:13.682Z,997.51
2022-12-22T01:25:46.201Z,997.52
2022-12-22T01:26:19.080Z,997.51
2022-12-22T01:26:51.595Z,997.51
2022-12-22T01:27:24.087Z,997.50
2022-12-22T01:27:56.601Z,997.53
2022-12-22T01:28:29.120Z,997.49
2022-12-22T01:29:01.572Z,997.50
2022-12-22T01:29:34.042Z,997.47
2022-12-22T01:30:06.576Z,997.48
2022-12-22T01:30:39.148Z,997.47
2022-12-22T01:31:11.658Z,997.47
2022-12-22T01:31:44.066Z,997.50
2022-12-22T01:32:16.654Z,997.51
2022-12-22T01:32:49.109Z,997.50
2022-12-22T01:33:21.651Z,997.51
2022-12-22T01:33:54.238Z,997.51
2022-12-22T01:34:26.721Z,997.49
2022-12-22T01:34:59.161Z,997.47
2022-12-22T01:35:31.673Z,997.45
2022-12-22T01:36:04.191Z,997.44
2022-12-22T01:36:36.716Z,997.43
2022-12-22T01:37:09.320Z,997.44
2022-12-22T01:37:41.875Z,997.42
2022-12-22T01:38:14.281Z,997.39
2022-12-22T01:38:46.768Z,997.39
2022-12-22T01:39:19.273Z,997.40
2022-12-22T01:39:51.879Z,997.40
2022-12-22T01:40:24.391Z,997.40
2022-12-22T01:40:56.902Z,997.40
2022-12-22T01:41:29.424Z,997.38
2022-12-22T01:42:01.847Z,997.38
2022-12-22T01:42:34.518Z,997.38
2022-12-22T01:43:07.090Z,997.38
2022-12-22T01:43:39.639Z,997.37
2022-12-22T01:44:12.200Z,997.37
2022-12-22T01:44:44.749Z,997.40
2022-12-22T01:45:17.278Z,997.41
2022-12-22T01:45:50.701Z,997.41
2022-12-22T01:46:23.283Z,997.40
2022-12-22T01:46:55.703Z,997.41
2022-12-22T01:47:28.211Z,997.39
2022-12-22T01:48:00.673Z,997.39
2022-12-22T01:48:33.142Z,997.39
2022-12-22T01:49:05.591Z,997.38
2022-12-22T01:49:38.196Z,997.39
2022-12-22T01:50:10.702Z,997.35
2022-12-22T01:50:43.197Z,997.34
2022-12-22T01:51:15.711Z,997.34
2022-12-22T01:51:48.258Z,997.34
2022-12-22T01:52:20.790Z,997.32
2022-12-22T01:52:53.288Z,997.33
2022-12-22T01:53:25.816Z,997.32
2022-12-22T01:53:58.315Z,997.32
2022-12-22T01:54:31.020Z,997.29
2022-12-22T01:55:03.583Z,997.27
2022-12-22T01:55:36.095Z,997.25
2022-12-22T01:56:08.527Z,997.25
2022-12-22T01:56:41.014Z,997.23
2022-12-22T01:57:13.463Z,997.21
2022-12-22T01:57:45.952Z,997.21
2022-12-22T01:58:18.467Z,997.21
2022-12-22T01:58:50.973Z,997.22
2022-12-22T01:59:23.513Z,997.21
2022-12-22T01:59:56.076Z,997.18
2022-12-22T02:00:28.464Z,997.16
2022-12-22T02:01:00.928Z,997.13
2022-12-22T02:01:34.525Z,997.13
2022-12-22T02:02:07.233Z,997.15
2022-12-22T02:02:39.775Z,997.10
2022-12-22T02:03:12.113Z,997.10
2022-12-22T02:03:44.601Z,997.05
2022-12-22T02:04:17.088Z,997.04
2022-12-22T02:04:49.671Z,997.01
2022-12-22T02:05:22.142Z,997.01
2022-12-22T02:05:54.615Z,997.01
2022-12-22T02:06:27.142Z,997.01
2022-12-22T02:07:00.521Z,997.02
2022-12-22T02:07:32.230Z,997.01
2022-12-22T02:08:04.758Z,997.01
2022-12-22T02:08:37.293Z,996.99
2022-12-22T02:09:09.823Z,996.98
2022-12-22T02:09:42.360Z,996.96
2022-12-22T02:10:14.854Z,996.94
2022-12-22T02:10:47.411Z,996.91
2022-12-22T02:11:20.032Z,996.91
2022-12-22T02:11:52.536Z,996.90
2022-12-22T02:12:25.031Z,996.90
2022-12-22T02:12:57.550Z,996.90
2022-12-22T02:13:30.076Z,996.89
2022-12-22T02:14:02.602Z,996.85
2022-12-22T02:14:35.261Z,996.86
2022-12-22T02:15:07.752Z,996.85
2022-12-22T02:15:40.344Z,996.84
2022-12-22T02:16:13.019Z,996.84
2022-12-22T02:16:45.425Z,996.81
2022-12-22T02:17:17.867Z,996.82
2022-12-22T02:17:50.346Z,996.81
2022-12-22T02:18:22.854Z,996.81
2022-12-22T02:18:55.447Z,996.80
2022-12-22T02:19:27.902Z,996.79
2022-12-22T02:20:00.479Z,996.82
2022-12-22T02:20:33.020Z,996.80
2022-12-22T02:21:05.502Z,996.83
2022-12-22T02:21:38.047Z,996.82
2022-12-22T02:22:10.658Z,996.81
2022-12-22T02:22:43.200Z,996.80
2022-12-22T02:23:15.673Z,996.78
2022-12-22T02:23:48.150Z,996.76
2022-12-22T02:24:20.578Z,996.76
2022-12-22T02:24:53.048Z,996.76
2022-12-22T02:25:25.562Z,996.77
2022-12-22T02:25:58.009Z,996.76
2022-12-22T02:26:30.515Z,996.76
2022-12-22T02:27:02.970Z,996.76
2022-12-22T02:27:35.511Z,996.76
2022-12-22T02:28:07.996Z,996.76
2022-12-22T02:28:40.550Z,996.76
2022-12-22T02:29:13.051Z,996.76
2022-12-22T02:29:45.541Z,996.74
2022-12-22T02:30:18.011Z,996.72
2022-12-22T02:30:50.504Z,996.71
2022-12-22T02:31:23.108Z,996.69
2022-12-22T02:31:55.504Z,996.67
2022-12-22T02:32:28.028Z,996.67
2022-12-22T02:33:05.391Z,996.66
2022-12-22T02:33:33.138Z,996.64
2022-12-22T02:34:05.707Z,996.63
2022-12-22T02:34:38.168Z,996.62
2022-12-22T02:35:10.646Z,996.60
2022-12-22T02:35:43.216Z,996.60
2022-12-22T02:36:15.772Z,996.57
2022-12-22T02:36:48.231Z,996.55
2022-12-22T02:37:20.719Z,996.53
2022-12-22T02:37:53.199Z,996.52
2022-12-22T02:38:25.646Z,996.50
2022-12-22T02:38:58.198Z,996.47
2022-12-22T02:39:30.781Z,996.47
2022-12-22T02:40:03.176Z,996.48
2022-12-22T02:40:41.088Z,996.49
2022-12-22T02:41:08.274Z,996.48
2022-12-22T02:41:40.815Z,996.49
2022-12-22T02:42:13.378Z,996.49
2022-12-22T02:42:45.814Z,996.47
2022-12-22T02:43:18.296Z,996.46
2022-12-22T02:43:50.856Z,996.44
2022-12-22T02:44:23.573Z,996.44
2022-12-22T02:44:56.095Z,996.42
2022-12-22T02:45:28.559Z,996.45
2022-12-22T02:46:01.087Z,996.43
2022-12-22T02:46:33.679Z,996.44
2022-12-22T02:47:06.271Z,996.43
2022-12-22T02:47:38.742Z,996.41
2022-12-22T02:48:11.219Z,996.41
2022-12-22T02:48:43.861Z,996.38
2022-12-22T02:49:16.481Z,996.38
2022-12-22T02:49:49.010Z,996.37
2022-12-22T02:50:21.580Z,996.39
2022-12-22T02:50:54.132Z,996.40
2022-12-22T02:51:26.685Z,996.42
2022-12-22T02:51:59.199Z,996.42
2022-12-22T02:52:31.744Z,996.41
2022-12-22T02:53:04.394Z,996.41
2022-12-22T02:53:36.906Z,996.41
2022-12-22T02:54:09.405Z,996.39
2022-12-22T02:54:41.891Z,996.40
2022-12-22T02:55:14.323Z,996.38
2022-12-22T02:55:47.026Z,996.37
2022-12-22T02:56:19.540Z,996.38
2022-12-22T02:56:52.049Z,996.38
2022-12-22T02:57:25.265Z,996.37
2022-12-22T02:57:57.745Z,996.39
2022-12-22T02:58:31.123Z,996.39
2022-12-22T02:59:03.730Z,996.38
2022-12-22T02:59:36.366Z,996.36
2022-12-22T03:00:08.940Z,996.36
2022-12-22T03:00:41.528Z,996.35
2022-12-22T03:01:14.207Z,996.35
2022-12-22T03:01:46.716Z,996.34
2022-12-22T03:02:19.128Z,996.32
2022-12-22T03:02:51.645Z,996.30
2022-12-22T03:03:24.187Z,996.28
2022-12-22T03:03:56.571Z,996.27
2022-12-22T03:04:28.913Z,996.26
2022-12-22T03:05:01.493Z,996.24
2022-12-22T03:05:34.036Z,996.20
2022-12-22T03:06:06.575Z,996.18
2022-12-22T03:06:39.079Z,996.16
2022-12-22T03:07:11.598Z,996.15
2022-12-22T03:07:44.033Z,996.14
2022-12-22T03:08:16.469Z,996.13
2022-12-22T03:08:49.005Z,996.14
2022-12-22T03:09:21.609Z,996.12
2022-12-22T03:09:54.081Z,996.12
2022-12-22T03:10:26.527Z,996.12
2022-12-22T03:10:58.964Z,996.12
2022-12-22T03:11:31.452Z,996.12
2022-12-22T03:12:03.982Z,996.13
2022-12-22T03:12:36.475Z,996.13
2022-12-22T03:13:08.967Z,996.13
2022-12-22T03:13:41.459Z,996.13
2022-12-22T03:14:13.961Z,996.08
2022-12-22T03:14:46.435Z,996.09
2022-12-22T03:15:18.897Z,996.10
2022-12-22T03:15:51.466Z,996.09
2022-12-22T03:16:24.000Z,996.09
2022-12-22T03:16:56.420Z,996.10
2022-12-22T03:17:28.862Z,996.08
2022-12-22T03:18:01.424Z,996.07
2022-12-22T03:18:33.930Z,996.05
2022-12-22T03:19:06.366Z,996.06
2022-12-22T03:19:38.834Z,996.06
2022-12-22T03:20:11.319Z,996.05
2022-12-22T03:20:43.861Z,996.07
2022-12-22T03:21:16.349Z,996.10
2022-12-22T03:21:48.910Z,996.08
2022-12-22T03:22:21.451Z,996.08
2022-12-22T03:22:53.908Z,996.08
2022-12-22T03:23:26.441Z,996.09
2022-12-22T03:23:58.870Z,996.08
2022-12-22T03:24:31.353Z,996.08
2022-12-22T03:25:03.819Z,996.08
2022-12-22T03:25:36.367Z,996.08
2022-12-22T03:26:08.830Z,996.06
2022-12-22T03:26:41.277Z,996.04
2022-12-22T03:27:13.806Z,996.02
2022-12-22T03:27:46.286Z,996.00
2022-12-22T03:28:18.841Z,995.99
2022-12-22T03:28:51.421Z,995.96
2022-12-22T03:29:23.932Z,995.92
2022-12-22T03:29:56.452Z,995.90
2022-12-22T03:30:28.991Z,995.89
2022-12-22T03:31:01.455Z,995.90
2022-12-22T03:31:33.906Z,995.89
2022-12-22T03:32:06.458Z,995.91
2022-12-22T03:32:38.985Z,995.91
2022-12-22T03:33:11.458Z,995.92
2022-12-22T03:33:43.920Z,995.93
2022-12-22T03:34:16.427Z,995.92
2022-12-22T03:34:48.876Z,995.93
2022-12-22T03:35:21.387Z,995.90
2022-12-22T03:35:53.917Z,995.88
2022-12-22T03:36:26.431Z,995.86
2022-12-22T03:36:59.158Z,995.84
2022-12-22T03:37:31.706Z,995.83
2022-12-22T03:38:04.243Z,995.81
2022-12-22T03:38:36.734Z,995.79
2022-12-22T03:39:09.228Z,995.80
2022-12-22T03:39:41.663Z,995.79
2022-12-22T03:40:14.241Z,995.79
2022-12-22T03:40:46.794Z,995.76
2022-12-22T03:41:19.337Z,995.75
2022-12-22T03:41:51.783Z,995.74
2022-12-22T03:42:24.260Z,995.72
2022-12-22T03:42:56.781Z,995.74
2022-12-22T03:43:29.249Z,995.70
2022-12-22T03:44:01.705Z,995.68
2022-12-22T03:44:34.190Z,995.66
2022-12-22T03:45:06.725Z,995.65
2022-12-22T03:45:39.251Z,995.65
2022-12-22T03:46:11.713Z,995.64
2022-12-22T03:46:44.255Z,995.63
2022-12-22T03:47:16.625Z,995.64
2022-12-22T03:47:49.161Z,995.63
2022-12-22T03:48:21.587Z,995.62
2022-12-22T03:48:54.130Z,995.64
2022-12-22T03:49:26.607Z,995.63
2022-12-22T03:49:59.048Z,995.63
2022-12-22T03:50:31.509Z,995.64
2022-12-22T03:51:03.944Z,995.66
2022-12-22T03:51:36.416Z,995.65
2022-12-22T03:52:08.933Z,995.65
2022-12-22T03:52:41.444Z,995.65
2022-12-22T03:53:14.055Z,995.66
2022-12-22T03:53:46.572Z,995.67
2022-12-22T03:54:19.018Z,995.66
2022-12-22T03:54:51.495Z,995.64
2022-12-22T03:55:23.990Z,995.64
2022-12-22T03:55:56.497Z,995.65
2022-12-22T03:56:29.113Z,995.65
2022-12-22T03:57:01.692Z,995.63
2022-12-22T03:57:34.245Z,995.64
2022-12-22T03:58:06.698Z,995.64
2022-12-22T03:58:39.188Z,995.64
2022-12-22T03:59:11.703Z,995.64
2022-12-22T03:59:44.194Z,995.63
2022-12-22T04:00:16.729Z,995.63
2022-12-22T04:00:49.287Z,995.64
2022-12-22T04:01:21.812Z,995.64
2022-12-22T04:01:54.585Z,995.63
2022-12-22T04:02:26.900Z,995.61
2022-12-22T04:02:59.507Z,995.62
2022-12-22T04:03:31.974Z,995.60
2022-12-22T04:04:04.436Z,995.60
2022-12-22T04:04:36.925Z,995.59
2022-12-22T04:05:09.448Z,995.58
2022-12-22T04:05:41.978Z,995.57
2022-12-22T04:06:14.500Z,995.57
2022-12-22T04:06:47.292Z,995.57
2022-12-22T04:07:19.801Z,995.57
2022-12-22T04:07:52.281Z,995.55
2022-12-22T04:08:24.750Z,995.53
2022-12-22T04:08:57.206Z,995.52
2022-12-22T04:09:29.642Z,995.52
2022-12-22T04:10:02.162Z,995.51
2022-12-22T04:10:34.689Z,995.51
2022-12-22T04:11:07.205Z,995.51
2022-12-22T04:11:39.712Z,995.51
2022-12-22T04:12:12.155Z,995.49
2022-12-22T04:12:44.631Z,995.48
2022-12-22T04:13:17.227Z,995.48
2022-12-22T04:13:49.721Z,995.48
2022-12-22T04:14:23.129Z,995.48
2022-12-22T04:14:54.789Z,995.47
2022-12-22T04:15:27.312Z,995.48
2022-12-22T04:15:59.883Z,995.47
2022-12-22T04:16:51.716Z,995.43
2022-12-22T04:17:24.188Z,995.42
2022-12-22T04:17:56.679Z,995.41
2022-12-22T04:18:29.193Z,995.41
2022-12-22T04:19:01.716Z,995.41
2022-12-22T04:19:34.239Z,995.41
2022-12-22T04:20:06.763Z,995.40
2022-12-22T04:20:39.293Z,995.39
2022-12-22T04:21:11.805Z,995.38
2022-12-22T04:21:44.397Z,995.37
2022-12-22T04:22:16.860Z,995.36
2022-12-22T04:22:49.374Z,995.35
2022-12-22T04:23:21.906Z,995.34
2022-12-22T04:23:54.355Z,995.35
2022-12-22T04:24:26.905Z,995.33
2022-12-22T04:24:59.412Z,995.31
2022-12-22T04:25:32.006Z,995.31
2022-12-22T04:26:04.471Z,995.30
2022-12-22T04:26:36.974Z,995.28
2022-12-22T04:27:09.438Z,995.27
2022-12-22T04:27:41.868Z,995.27
2022-12-22T04:28:14.352Z,995.24
2022-12-22T04:28:46.932Z,995.24
2022-12-22T04:29:19.324Z,995.24
2022-12-22T04:29:51.937Z,995.24
2022-12-22T04:30:24.452Z,995.22
2022-12-22T04:30:56.919Z,995.23
2022-12-22T04:31:29.431Z,995.22
2022-12-22T04:32:01.955Z,995.21
2022-12-22T04:32:34.334Z,995.21
2022-12-22T04:33:06.855Z,995.20
2022-12-22T04:33:39.422Z,995.18
2022-12-22T04:34:11.924Z,995.17
2022-12-22T04:34:44.473Z,995.14
2022-12-22T04:35:16.991Z,995.14
2022-12-22T04:35:49.515Z,995.12
2022-12-22T04:36:21.967Z,995.11
2022-12-22T04:36:54.428Z,995.10
2022-12-22T04:37:26.884Z,995.12
2022-12-22T04:37:59.326Z,995.12
2022-12-22T04:38:31.783Z,995.10
2022-12-22T04:39:04.270Z,995.11
2022-12-22T04:39:36.779Z,995.11
2022-12-22T04:40:09.362Z,995.10
2022-12-22T04:40:41.886Z,995.10
2022-12-22T04:41:14.370Z,995.09
2022-12-22T04:41:46.831Z,995.09
2022-12-22T04:42:19.349Z,995.08
2022-12-22T04:42:51.852Z,995.08
2022-12-22T04:43:24.286Z,995.06
2022-12-22T04:43:56.809Z,995.06
2022-12-22T04:44:29.337Z,995.06
2022-12-22T04:45:01.917Z,995.06
2022-12-22T04:45:34.473Z,995.05
2022-12-22T04:46:07.019Z,995.05
2022-12-22T04:46:39.491Z,995.05
2022-12-22T04:47:12.141Z,995.03
2022-12-22T04:47:44.640Z,995.01
2022-12-22T04:48:17.206Z,995.01
2022-12-22T04:48:51.972Z,995.00
2022-12-22T04:49:22.248Z,994.99
2022-12-22T04:49:54.816Z,994.99
2022-12-22T04:50:27.351Z,994.99
2022-12-22T04:50:59.821Z,994.99
2022-12-22T04:51:32.325Z,994.99
2022-12-22T04:52:04.856Z,995.00
2022-12-22T04:52:37.356Z,994.99
2022-12-22T04:53:09.807Z,994.98
2022-12-22T04:53:42.314Z,994.99
2022-12-22T04:54:14.881Z,994.99
2022-12-22T04:54:47.379Z,994.96
2022-12-22T04:55:19.942Z,994.98
2022-12-22T04:55:52.459Z,994.96
2022-12-22T04:56:24.963Z,994.97
2022-12-22T04:56:57.527Z,994.95
2022-12-22T04:57:30.012Z,994.93
2022-12-22T04:58:02.556Z,994.92
2022-12-22T04:58:35.114Z,994.91
2022-12-22T04:59:07.577Z,994.90
2022-12-22T04:59:40.050Z,994.88
2022-12-22T05:00:12.481Z,994.88
2022-12-22T05:00:44.984Z,994.88
2022-12-22T05:01:17.740Z,994.89
2022-12-22T05:01:50.228Z,994.88
2022-12-22T05:02:22.820Z,994.87
2022-12-22T05:02:55.298Z,994.89
2022-12-22T05:03:27.671Z,994.87
2022-12-22T05:04:00.127Z,994.87
2022-12-22T05:04:32.624Z,994.88
2022-12-22T05:05:05.181Z,994.90
2022-12-22T05:05:37.608Z,994.88
2022-12-22T05:06:10.090Z,994.88
2022-12-22T05:06:42.525Z,994.88
2022-12-22T05:07:15.020Z,994.87
2022-12-22T05:07:47.524Z,994.86
2022-12-22T05:08:20.040Z,994.85
2022-12-22T05:08:52.488Z,994.84
2022-12-22T05:09:24.968Z,994.84
2022-12-22T05:09:57.499Z,994.81
2022-12-22T05:10:30.028Z,994.81
2022-12-22T05:11:02.567Z,994.82
2022-12-22T05:11:35.059Z,994.81
2022-12-22T05:12:07.576Z,994.82
2022-12-22T05:12:40.116Z,994.84
2022-12-22T05:13:20.104Z,994.82
2022-12-22T05:13:52.757Z,994.82
2022-12-22T05:14:25.588Z,994.81
2022-12-22T05:14:58.041Z,994.80
2022-12-22T05:15:30.508Z,994.80
2022-12-22T05:16:03.019Z,994.79
2022-12-22T05:16:35.547Z,994.80
2022-12-22T05:17:08.039Z,994.78
2022-12-22T05:17:40.390Z,994.79
2022-12-22T05:18:12.896Z,994.78
2022-12-22T05:18:45.390Z,994.78
2022-12-22T05:19:21.764Z,994.79
2022-12-22T05:19:53.294Z,994.78
2022-12-22T05:20:25.766Z,994.77
2022-12-22T05:20:58.315Z,994.78
2022-12-22T05:21:30.919Z,994.77
2022-12-22T05:22:03.374Z,994.76
2022-12-22T05:22:35.921Z,994.76
2022-12-22T05:23:08.399Z,994.75
2022-12-22T05:23:40.971Z,994.75
2022-12-22T05:24:13.543Z,994.75
2022-12-22T05:24:46.137Z,994.74
2022-12-22T05:25:18.576Z,994.76
2022-12-22T05:25:51.064Z,994.76
2022-12-22T05:26:23.586Z,994.75
2022-12-22T05:26:56.051Z,994.75
2022-12-22T05:27:28.491Z,994.75
2022-12-22T05:28:01.066Z,994.75
2022-12-22T05:28:33.591Z,994.74
2022-12-22T05:29:06.073Z,994.74
2022-12-22T05:29:38.600Z,994.74
2022-12-22T05:30:11.051Z,994.74
2022-12-22T05:30:43.732Z,994.73
2022-12-22T05:31:16.305Z,994.75
2022-12-22T05:31:48.740Z,994.74
2022-12-22T05:32:21.215Z,994.74
2022-12-22T05:32:53.681Z,994.73
2022-12-22T05:33:26.247Z,994.72
2022-12-22T05:33:58.826Z,994.71
2022-12-22T05:34:31.290Z,994.72
2022-12-22T05:35:03.807Z,994.71
2022-12-22T05:35:36.324Z,994.71
2022-12-22T05:36:08.833Z,994.71
2022-12-22T05:36:41.330Z,994.72
2022-12-22T05:37:13.866Z,994.73
2022-12-22T05:37:46.406Z,994.73
2022-12-22T05:38:18.898Z,994.72
2022-12-22T05:38:51.411Z,994.73
2022-12-22T05:39:23.873Z,994.71
2022-12-22T05:39:56.353Z,994.70
2022-12-22T05:40:29.365Z,994.70
2022-12-22T05:41:04.321Z,994.70
2022-12-22T05:41:34.476Z,994.70
2022-12-22T05:42:06.931Z,994.69
2022-12-22T05:42:39.519Z,994.71
2022-12-22T05:43:11.975Z,994.71
2022-12-22T05:43:44.508Z,994.70
2022-12-22T05:44:17.018Z,994.69
2022-12-22T05:44:49.652Z,994.70
2022-12-22T05:45:22.200Z,994.69
2022-12-22T05:45:54.739Z,994.69
2022-12-22T05:46:27.313Z,994.69
2022-12-22T05:46:59.788Z,994.69
2022-12-22T05:47:32.375Z,994.68
2022-12-22T05:48:04.942Z,994.66
2022-12-22T05:48:39.026Z,994.67
2022-12-22T05:49:10.055Z,994.67
2022-12-22T05:49:42.707Z,994.66
2022-12-22T05:50:15.262Z,994.64
2022-12-22T05:50:47.767Z,994.65
2022-12-22T05:51:20.301Z,994.65
2022-12-22T05:51:52.856Z,994.65
2022-12-22T05:52:25.411Z,994.64
2022-12-22T05:52:57.928Z,994.64
2022-12-22T05:53:30.488Z,994.65
2022-12-22T05:54:02.971Z,994.65
2022-12-22T05:54:35.406Z,994.66
2022-12-22T05:55:07.938Z,994.67
2022-12-22T05:55:40.377Z,994.67
2022-12-22T05:56:12.940Z,994.67
2022-12-22T05:56:45.406Z,994.68
2022-12-22T05:57:17.909Z,994.67
2022-12-22T05:57:50.399Z,994.67
2022-12-22T05:58:22.922Z,994.67
2022-12-22T05:58:55.489Z,994.66
2022-12-22T05:59:27.951Z,994.65
2022-12-22T06:00:00.424Z,994.65
2022-12-22T06:00:32.929Z,994.66
2022-12-22T06:01:05.508Z,994.66
2022-12-22T06:01:38.035Z,994.65
2022-12-22T06:02:10.905Z,994.64
2022-12-22T06:02:43.368Z,994.62
2022-12-22T06:03:15.933Z,994.64
2022-12-22T06:03:48.564Z,994.62
2022-12-22T06:04:20.985Z,994.62
2022-12-22T06:04:53.343Z,994.62
2022-12-22T06:05:25.882Z,994.63
2022-12-22T06:05:58.450Z,994.64
2022-12-22T06:06:30.981Z,994.62
2022-12-22T06:07:03.537Z,994.63
2022-12-22T06:07:35.981Z,994.62
2022-12-22T06:08:08.574Z,994.63
2022-12-22T06:08:41.111Z,994.61
2022-12-22T06:09:13.796Z,994.60
2022-12-22T06:09:46.241Z,994.60
2022-12-22T06:10:18.716Z,994.57
2022-12-22T06:10:51.203Z,994.57
2022-12-22T06:11:23.737Z,994.57
2022-12-22T06:11:56.161Z,994.57
2022-12-22T06:12:28.758Z,994.57
2022-12-22T06:13:01.273Z,994.58
2022-12-22T06:13:33.776Z,994.56
2022-12-22T06:14:06.290Z,994.57
2022-12-22T06:14:38.867Z,994.57
2022-12-22T06:15:11.371Z,994.56
2022-12-22T06:15:43.908Z,994.54
2022-12-22T06:16:16.395Z,994.55
2022-12-22T06:16:49.020Z,994.55
2022-12-22T06:17:21.549Z,994.55
2022-12-22T06:17:54.129Z,994.54
2022-12-22T06:18:26.591Z,994.53
2022-12-22T06:18:59.084Z,994.52
2022-12-22T06:19:31.603Z,994.50
2022-12-22T06:20:04.147Z,994.49
2022-12-22T06:20:36.672Z,994.49
2022-12-22T06:21:09.777Z,994.49
2022-12-22T06:21:42.299Z,994.52
2022-12-22T06:22:14.831Z,994.53
2022-12-22T06:22:47.310Z,994.55
2022-12-22T06:23:20.299Z,994.59
2022-12-22T06:23:52.826Z,994.58
2022-12-22T06:24:25.331Z,994.60
2022-12-22T06:24:57.874Z,994.61
2022-12-22T06:25:30.372Z,994.61
2022-12-22T06:26:02.893Z,994.63
2022-12-22T06:26:35.368Z,994.63
2022-12-22T06:27:07.819Z,994.63
2022-12-22T06:27:40.794Z,994.63
2022-12-22T06:28:13.334Z,994.63
2022-12-22T06:28:45.885Z,994.62
2022-12-22T06:29:18.434Z,994.61
2022-12-22T06:29:50.965Z,994.59
2022-12-22T06:30:29.226Z,994.58
2022-12-22T06:30:55.949Z,994.59
2022-12-22T06:31:28.364Z,994.58
2022-12-22T06:32:00.794Z,994.56
2022-12-22T06:32:33.288Z,994.57
2022-12-22T06:33:05.787Z,994.56
2022-12-22T06:33:38.283Z,994.54
2022-12-22T06:34:10.752Z,994.54
2022-12-22T06:34:43.223Z,994.55
2022-12-22T06:35:15.742Z,994.54
2022-12-22T06:35:50.872Z,994.55
2022-12-22T06:36:20.735Z,994.55
2022-12-22T06:36:53.264Z,994.57
2022-12-22T06:37:25.750Z,994.58
2022-12-22T06:37:58.274Z,994.58
2022-12-22T06:38:30.720Z,994.59
2022-12-22T06:39:03.208Z,994.59
2022-12-22T06:39:35.746Z,994.60
2022-12-22T06:40:08.430Z,994.60
2022-12-22T06:40:40.854Z,994.62
2022-12-22T06:41:13.487Z,994.62
2022-12-22T06:41:45.981Z,994.62
2022-12-22T06:42:18.461Z,994.63
2022-12-22T06:42:50.958Z,994.63
2022-12-22T06:43:23.498Z,994.64
2022-12-22T06:43:55.985Z,994.65
2022-12-22T06:44:28.487Z,994.67
2022-12-22T06:45:00.988Z,994.67
2022-12-22T06:45:33.522Z,994.68
2022-12-22T06:46:06.066Z,994.68